createdAt,value
2019-02-05T00:00:55.734Z,3.70
2019-02-05T00:01:55.747Z,3.90
2019-02-05T00:02:55.665Z,4.20
2019-02-05T00:03:55.653Z,4.10
2019-02-05T00:04:55.619Z,4.20
2019-02-05T00:05:55.578Z,4.50
2019-02-05T00:06:55.554Z,3.50
2019-02-05T00:07:55.534Z,4.30
2019-02-05T00:08:55.522Z,4.60
2019-02-05T00:09:55.489Z,4.10
2019-02-05T00:10:55.457Z,3.80
2019-02-05T00:11:55.426Z,4.70
2019-02-05T00:12:55.396Z,4.20
2019-02-05T00:13:55.361Z,4.60
2019-02-05T00:14:55.340Z,4.90
2019-02-05T00:15:55.362Z,4.70
2019-02-05T00:16:55.288Z,5.10
2019-02-05T00:17:55.273Z,4.60
2019-02-05T00:18:55.244Z,4.10
2019-02-05T00:19:55.240Z,4.00
2019-02-05T00:20:55.183Z,4.50
2019-02-05T00:21:55.198Z,4.70
2019-02-05T00:22:55.159Z,4.30
2019-02-05T00:23:55.124Z,5.00
2019-02-05T00:24:55.079Z,4.60
2019-02-05T00:26:05.645Z,4.40
2019-02-05T00:26:55.033Z,4.50
2019-02-05T00:27:54.992Z,4.60
2019-02-05T00:28:54.983Z,4.40
2019-02-05T00:29:54.948Z,4.40
2019-02-05T00:30:54.942Z,4.40
2019-02-05T00:31:54.913Z,4.40
2019-02-05T00:32:54.864Z,4.60
2019-02-05T00:33:54.848Z,5.10
2019-02-05T00:34:54.818Z,5.40
2019-02-05T00:35:54.781Z,4.80
2019-02-05T00:36:54.778Z,4.90
2019-02-05T00:37:54.750Z,4.80
2019-02-05T00:38:54.733Z,5.10
2019-02-05T00:39:54.703Z,4.80
2019-02-05T00:40:54.664Z,5.00
2019-02-05T00:41:54.648Z,5.00
2019-02-05T00:42:54.596Z,5.10
2019-02-05T00:43:54.610Z,4.90
2019-02-05T00:44:54.547Z,4.80
2019-02-05T00:45:54.545Z,5.00
2019-02-05T00:46:54.510Z,4.20
2019-02-05T00:47:54.511Z,4.70
2019-02-05T00:48:54.469Z,4.90
2019-02-05T00:49:54.438Z,4.90
2019-02-05T00:50:54.384Z,4.70
2019-02-05T00:51:54.410Z,5.10
2019-02-05T00:52:54.350Z,5.00
2019-02-05T00:53:54.308Z,5.50
2019-02-05T00:54:54.299Z,4.90
2019-02-05T00:55:54.279Z,4.70
2019-02-05T00:56:54.225Z,5.00
2019-02-05T00:57:54.211Z,4.60
2019-02-05T00:58:54.219Z,4.80
2019-02-05T00:59:54.174Z,5.00
2019-02-05T01:00:54.138Z,5.00
2019-02-05T01:01:54.101Z,4.90
2019-02-05T01:02:54.085Z,4.90
2019-02-05T01:03:54.046Z,5.50
2019-02-05T01:04:54.016Z,4.70
2019-02-05T01:05:54.031Z,4.60
2019-02-05T01:06:53.967Z,5.30
2019-02-05T01:07:53.947Z,4.60
2019-02-05T01:08:53.918Z,4.80
2019-02-05T01:09:53.924Z,4.50
2019-02-05T01:10:53.900Z,5.20
2019-02-05T01:11:53.839Z,5.40
2019-02-05T01:12:53.821Z,5.40
2019-02-05T01:13:53.820Z,5.00
2019-02-05T01:14:53.802Z,5.50
2019-02-05T01:15:53.718Z,4.50
2019-02-05T01:16:53.778Z,5.40
2019-02-05T01:17:53.679Z,5.30
2019-02-05T01:18:53.643Z,5.00
2019-02-05T01:19:53.629Z,4.60
2019-02-05T01:20:53.599Z,5.10
2019-02-05T01:21:53.558Z,5.30
2019-02-05T01:22:53.538Z,4.60
2019-02-05T01:23:53.524Z,4.40
2019-02-05T01:24:53.481Z,5.20
2019-02-05T01:25:53.481Z,5.00
2019-02-05T01:26:53.427Z,5.10
2019-02-05T01:27:53.406Z,5.40
2019-02-05T01:28:53.381Z,4.80
2019-02-05T01:29:53.364Z,4.60
2019-02-05T01:30:53.367Z,4.90
2019-02-05T01:31:53.311Z,6.00
2019-02-05T01:32:53.280Z,5.40
2019-02-05T01:33:53.241Z,5.70
2019-02-05T01:34:53.222Z,5.70
2019-02-05T01:35:53.191Z,5.10
2019-02-05T01:36:53.172Z,5.10
2019-02-05T01:37:53.155Z,5.60
2019-02-05T01:38:53.116Z,5.10
2019-02-05T01:39:53.084Z,5.20
2019-02-05T01:40:53.054Z,5.40
2019-02-05T01:41:53.045Z,5.10
2019-02-05T01:42:53.010Z,4.90
2019-02-05T01:43:52.994Z,5.00
2019-02-05T01:44:52.951Z,5.60
2019-02-05T01:45:52.923Z,5.30
2019-02-05T01:46:52.895Z,5.50
2019-02-05T01:47:52.896Z,5.40
2019-02-05T01:48:52.859Z,5.20
2019-02-05T01:49:52.857Z,5.70
2019-02-05T01:50:52.784Z,5.50
2019-02-05T01:51:52.763Z,5.60
2019-02-05T01:52:52.746Z,6.10
2019-02-05T01:53:52.714Z,5.80
2019-02-05T01:54:52.699Z,5.40
2019-02-05T01:55:52.676Z,5.60
2019-02-05T01:56:52.647Z,5.40
2019-02-05T01:57:52.644Z,5.50
2019-02-05T01:58:52.603Z,5.50
2019-02-05T01:59:52.570Z,5.00
2019-02-05T02:00:52.567Z,5.70
2019-02-05T02:01:52.514Z,5.50
2019-02-05T02:02:52.478Z,5.40
2019-02-05T02:03:52.461Z,5.70
2019-02-05T02:04:52.418Z,5.50
2019-02-05T02:05:52.423Z,5.60
2019-02-05T02:06:52.397Z,5.60
2019-02-05T02:07:52.355Z,5.80
2019-02-05T02:08:52.317Z,5.30
2019-02-05T02:09:52.336Z,5.40
2019-02-05T02:10:52.284Z,5.80
2019-02-05T02:11:52.314Z,5.50
2019-02-05T02:12:52.228Z,5.60
2019-02-05T02:13:52.175Z,5.30
2019-02-05T02:14:52.219Z,5.40
2019-02-05T02:15:52.127Z,5.50
2019-02-05T02:16:52.140Z,5.90
2019-02-05T02:17:52.111Z,5.50
2019-02-05T02:18:52.064Z,5.50
2019-02-05T02:19:52.020Z,5.40
2019-02-05T02:20:52.041Z,5.70
2019-02-05T02:21:51.971Z,6.10
2019-02-05T02:22:51.963Z,6.00
2019-02-05T02:23:52.022Z,5.60
2019-02-05T02:24:51.902Z,5.60
2019-02-05T02:25:51.899Z,5.80
2019-02-05T02:26:52.473Z,6.50
2019-02-05T02:27:51.849Z,6.10
2019-02-05T02:28:51.787Z,6.30
2019-02-05T02:29:51.809Z,6.30
2019-02-05T02:30:51.749Z,6.40
2019-02-05T02:31:51.730Z,6.90
2019-02-05T02:32:51.691Z,6.70
2019-02-05T02:33:51.668Z,6.40
2019-02-05T02:34:51.623Z,6.40
2019-02-05T02:35:51.619Z,6.30
2019-02-05T02:36:51.611Z,5.90
2019-02-05T02:37:51.541Z,6.60
2019-02-05T02:38:51.522Z,5.90
2019-02-05T02:39:51.529Z,6.10
2019-02-05T02:40:51.507Z,6.40
2019-02-05T02:41:51.492Z,6.20
2019-02-05T02:42:51.409Z,6.10
2019-02-05T02:43:51.429Z,6.30
2019-02-05T02:44:51.363Z,6.80
2019-02-05T02:45:51.368Z,6.30
2019-02-05T02:46:51.305Z,6.50
2019-02-05T02:47:51.292Z,7.40
2019-02-05T02:48:51.269Z,6.60
2019-02-05T02:49:51.235Z,6.40
2019-02-05T02:50:51.198Z,6.60
2019-02-05T02:51:51.177Z,7.20
2019-02-05T02:52:51.166Z,7.50
2019-02-05T02:53:51.128Z,6.50
2019-02-05T02:54:51.127Z,7.00
2019-02-05T02:55:51.195Z,6.70
2019-02-05T02:56:51.080Z,6.60
2019-02-05T02:57:51.022Z,7.30
2019-02-05T02:58:51.011Z,7.00
2019-02-05T02:59:50.961Z,6.60
2019-02-05T03:00:50.940Z,6.70
2019-02-05T03:01:50.931Z,6.60
2019-02-05T03:02:50.889Z,7.20
2019-02-05T03:03:50.874Z,7.10
2019-02-05T03:04:50.846Z,7.20
2019-02-05T03:05:50.824Z,7.00
2019-02-05T03:06:50.790Z,6.50
2019-02-05T03:07:50.783Z,6.50
2019-02-05T03:08:50.729Z,6.80
2019-02-05T03:09:50.708Z,6.50
2019-02-05T03:10:50.674Z,6.60
2019-02-05T03:11:50.645Z,6.60
2019-02-05T03:12:50.624Z,6.80
2019-02-05T03:13:50.598Z,6.30
2019-02-05T03:14:50.571Z,6.80
2019-02-05T03:15:50.557Z,6.50
2019-02-05T03:16:50.525Z,6.60
2019-02-05T03:17:50.522Z,6.40
2019-02-05T03:18:50.471Z,7.00
2019-02-05T03:19:50.445Z,6.30
2019-02-05T03:20:50.454Z,6.90
2019-02-05T03:21:50.411Z,6.90
2019-02-05T03:22:50.389Z,6.50
2019-02-05T03:23:50.345Z,6.90
2019-02-05T03:24:50.300Z,6.60
2019-02-05T03:25:50.274Z,6.40
2019-02-05T03:26:50.276Z,6.90
2019-02-05T03:27:53.567Z,7.10
2019-02-05T03:28:50.194Z,6.50
2019-02-05T03:29:50.165Z,6.80
2019-02-05T03:30:50.150Z,7.20
2019-02-05T03:31:50.123Z,6.50
2019-02-05T03:32:50.100Z,6.90
2019-02-05T03:33:50.062Z,7.00
2019-02-05T03:34:50.039Z,7.40
2019-02-05T03:35:50.021Z,6.90
2019-02-05T03:36:49.992Z,7.40
2019-02-05T03:37:49.973Z,6.70
2019-02-05T03:38:49.948Z,6.70
2019-02-05T03:39:49.975Z,5.90
2019-02-05T03:40:49.879Z,6.80
2019-02-05T03:41:49.883Z,6.60
2019-02-05T03:42:49.842Z,6.30
2019-02-05T03:43:49.829Z,6.50
2019-02-05T03:44:49.783Z,6.40
2019-02-05T03:45:49.750Z,6.20
2019-02-05T03:46:49.791Z,6.20
2019-02-05T03:47:49.725Z,6.40
2019-02-05T03:48:49.678Z,6.60
2019-02-05T03:49:49.636Z,6.20
2019-02-05T03:50:49.629Z,6.50
2019-02-05T03:51:49.607Z,6.00
2019-02-05T03:52:49.589Z,6.40
2019-02-05T03:53:49.571Z,5.90
2019-02-05T03:54:49.507Z,6.50
2019-02-05T03:55:49.498Z,6.50
2019-02-05T03:56:49.470Z,6.10
2019-02-05T03:57:49.449Z,7.20
2019-02-05T03:58:49.421Z,6.50
2019-02-05T03:59:49.401Z,6.30
2019-02-05T04:00:49.358Z,6.80
2019-02-05T04:01:49.346Z,6.30
2019-02-05T04:02:49.324Z,6.90
2019-02-05T04:03:49.275Z,7.40
2019-02-05T04:04:49.242Z,7.50
2019-02-05T04:05:49.217Z,7.30
2019-02-05T04:06:49.195Z,7.30
2019-02-05T04:07:49.197Z,7.20
2019-02-05T04:08:49.148Z,6.60
2019-02-05T04:09:49.133Z,7.10
2019-02-05T04:10:49.089Z,7.00
2019-02-05T04:11:49.054Z,7.00
2019-02-05T04:12:49.050Z,6.80
2019-02-05T04:13:49.038Z,6.80
2019-02-05T04:14:48.975Z,7.00
2019-02-05T04:15:48.970Z,6.90
2019-02-05T04:16:48.943Z,6.70
2019-02-05T04:17:48.935Z,6.50
2019-02-05T04:18:48.878Z,6.50
2019-02-05T04:19:48.845Z,7.50
2019-02-05T04:20:48.858Z,6.70
2019-02-05T04:21:48.792Z,6.40
2019-02-05T04:22:48.819Z,6.60
2019-02-05T04:23:48.756Z,6.50
2019-02-05T04:24:48.714Z,6.80
2019-02-05T04:25:48.714Z,6.30
2019-02-05T04:26:48.658Z,6.50
2019-02-05T04:27:48.659Z,7.10
2019-02-05T04:28:48.608Z,6.90
2019-02-05T04:29:48.609Z,6.50
2019-02-05T04:30:48.557Z,6.70
2019-02-05T04:31:48.535Z,7.00
2019-02-05T04:32:48.529Z,7.00
2019-02-05T04:33:48.499Z,6.40
2019-02-05T04:34:48.444Z,7.10
2019-02-05T04:35:48.441Z,7.00
2019-02-05T04:36:48.400Z,6.90
2019-02-05T04:37:48.397Z,6.80
2019-02-05T04:38:48.378Z,7.10
2019-02-05T04:39:48.347Z,6.80
2019-02-05T04:40:48.310Z,6.70
2019-02-05T04:41:48.262Z,6.90
2019-02-05T04:42:48.258Z,7.10
2019-02-05T04:43:48.211Z,7.40
2019-02-05T04:44:48.184Z,6.90
2019-02-05T04:45:48.156Z,7.50
2019-02-05T04:46:48.131Z,7.60
2019-02-05T04:47:48.153Z,8.00
2019-02-05T04:48:48.092Z,8.20
2019-02-05T04:49:48.071Z,8.10
2019-02-05T04:50:48.049Z,7.90
2019-02-05T04:51:48.009Z,8.90
2019-02-05T04:52:47.978Z,8.50
2019-02-05T04:53:47.959Z,7.60
2019-02-05T04:54:47.913Z,8.00
2019-02-05T04:55:47.893Z,8.00
2019-02-05T04:56:47.883Z,8.60
2019-02-05T04:57:57.072Z,8.10
2019-02-05T04:58:47.836Z,7.20
2019-02-05T04:59:47.806Z,8.10
2019-02-05T05:00:47.763Z,7.60
2019-02-05T05:01:47.778Z,8.70
2019-02-05T05:02:47.713Z,8.20
2019-02-05T05:03:47.675Z,8.70
2019-02-05T05:04:47.678Z,8.40
2019-02-05T05:05:47.644Z,8.50
2019-02-05T05:06:47.607Z,8.60
2019-02-05T05:07:47.571Z,8.10
2019-02-05T05:08:47.559Z,8.30
2019-02-05T05:09:47.577Z,8.60
2019-02-05T05:10:47.498Z,9.20
2019-02-05T05:11:47.479Z,8.70
2019-02-05T05:12:47.437Z,8.40
2019-02-05T05:13:47.426Z,8.10
2019-02-05T05:14:47.387Z,8.30
2019-02-05T05:15:47.356Z,8.00
2019-02-05T05:16:47.365Z,9.10
2019-02-05T05:17:47.353Z,8.70
2019-02-05T05:18:47.286Z,8.80
2019-02-05T05:19:47.271Z,8.70
2019-02-05T05:20:47.239Z,9.10
2019-02-05T05:21:47.212Z,8.30
2019-02-05T05:22:47.189Z,8.50
2019-02-05T05:23:47.147Z,9.10
2019-02-05T05:24:47.130Z,8.00
2019-02-05T05:25:47.103Z,9.00
2019-02-05T05:26:47.065Z,8.70
2019-02-05T05:27:47.113Z,8.60
2019-02-05T05:28:47.010Z,9.10
2019-02-05T05:29:46.990Z,9.00
2019-02-05T05:30:46.968Z,9.00
2019-02-05T05:31:46.953Z,8.40
2019-02-05T05:32:46.910Z,8.00
2019-02-05T05:33:46.884Z,8.50
2019-02-05T05:34:46.859Z,9.00
2019-02-05T05:35:46.858Z,8.80
2019-02-05T05:36:46.807Z,9.50
2019-02-05T05:37:46.781Z,8.50
2019-02-05T05:38:46.747Z,8.80
2019-02-05T05:39:46.718Z,7.80
2019-02-05T05:40:46.770Z,7.80
2019-02-05T05:41:46.704Z,9.30
2019-02-05T05:42:46.654Z,8.80
2019-02-05T05:43:46.616Z,9.20
2019-02-05T05:44:46.644Z,9.30
2019-02-05T05:45:46.580Z,8.60
2019-02-05T05:46:46.532Z,8.70
2019-02-05T05:47:46.590Z,9.10
2019-02-05T05:48:46.496Z,8.30
2019-02-05T05:49:46.465Z,8.60
2019-02-05T05:50:46.450Z,9.00
2019-02-05T05:51:46.415Z,9.00
2019-02-05T05:52:46.397Z,8.80
2019-02-05T05:53:46.347Z,8.20
2019-02-05T05:54:46.338Z,8.00
2019-02-05T05:55:46.295Z,8.50
2019-02-05T05:56:46.283Z,8.10
2019-02-05T05:57:46.263Z,9.20
2019-02-05T05:58:46.277Z,9.00
2019-02-05T05:59:46.201Z,9.10
2019-02-05T06:00:46.166Z,8.50
2019-02-05T06:01:46.154Z,9.00
2019-02-05T06:02:46.108Z,9.60
2019-02-05T06:03:46.113Z,9.40
2019-02-05T06:04:46.075Z,9.20
2019-02-05T06:05:46.057Z,9.30
2019-02-05T06:06:46.005Z,8.20
2019-02-05T06:07:46.017Z,9.10
2019-02-05T06:08:45.962Z,8.40
2019-02-05T06:09:45.922Z,8.00
2019-02-05T06:10:45.904Z,9.00
2019-02-05T06:11:45.868Z,8.00
2019-02-05T06:12:45.895Z,9.60
2019-02-05T06:13:45.823Z,9.10
2019-02-05T06:14:45.789Z,9.50
2019-02-05T06:15:45.768Z,9.50
2019-02-05T06:16:45.743Z,8.70
2019-02-05T06:17:45.728Z,9.20
2019-02-05T06:18:45.699Z,9.50
2019-02-05T06:19:45.664Z,9.50
2019-02-05T06:20:45.660Z,9.00
2019-02-05T06:21:45.625Z,9.80
2019-02-05T06:22:45.593Z,8.50
2019-02-05T06:23:45.572Z,8.90
2019-02-05T06:24:45.563Z,9.10
2019-02-05T06:25:45.508Z,9.00
2019-02-05T06:26:45.502Z,9.50
2019-02-05T06:27:45.499Z,9.10
2019-02-05T06:28:45.437Z,8.30
2019-02-05T06:29:45.393Z,8.60
2019-02-05T06:30:45.385Z,8.90
2019-02-05T06:31:45.354Z,9.70
2019-02-05T06:32:45.383Z,9.20
2019-02-05T06:33:45.320Z,8.90
2019-02-05T06:34:45.270Z,9.60
2019-02-05T06:35:45.263Z,8.80
2019-02-05T06:36:45.215Z,9.70
2019-02-05T06:37:45.219Z,9.00
2019-02-05T06:38:45.176Z,8.60
2019-02-05T06:39:45.148Z,9.00
2019-02-05T06:40:45.151Z,8.30
2019-02-05T06:41:45.087Z,8.40
2019-02-05T06:42:45.060Z,8.20
2019-02-05T06:43:45.055Z,8.40
2019-02-05T06:44:45.005Z,8.90
2019-02-05T06:45:44.980Z,8.70
2019-02-05T06:46:45.002Z,8.70
2019-02-05T06:47:44.922Z,9.00
2019-02-05T06:48:44.909Z,8.90
2019-02-05T06:49:44.885Z,8.50
2019-02-05T06:50:44.849Z,9.00
2019-02-05T06:51:44.836Z,8.40
2019-02-05T06:52:44.830Z,8.70
2019-02-05T06:53:44.789Z,9.00
2019-02-05T06:54:44.741Z,8.30
2019-02-05T06:55:44.720Z,8.90
2019-02-05T06:56:44.701Z,9.20
2019-02-05T06:57:44.683Z,8.40
2019-02-05T06:58:46.534Z,8.30
2019-02-05T06:59:44.619Z,8.90
2019-02-05T07:00:44.613Z,8.60
2019-02-05T07:01:44.572Z,8.80
2019-02-05T07:02:44.569Z,8.40
2019-02-05T07:03:44.518Z,9.10
2019-02-05T07:04:44.509Z,8.40
2019-02-05T07:05:44.467Z,8.70
2019-02-05T07:06:44.427Z,8.50
2019-02-05T07:07:44.405Z,10.10
2019-02-05T07:08:44.388Z,9.40
2019-02-05T07:09:44.379Z,9.20
2019-02-05T07:10:44.341Z,9.10
2019-02-05T07:11:44.295Z,9.10
2019-02-05T07:12:44.302Z,9.00
2019-02-05T07:13:44.244Z,9.20
2019-02-05T07:14:44.220Z,9.90
2019-02-05T07:15:44.189Z,9.00
2019-02-05T07:16:44.171Z,8.80
2019-02-05T07:17:49.686Z,9.30
2019-02-05T07:18:44.110Z,8.50
2019-02-05T07:19:44.084Z,10.20
2019-02-05T07:20:44.074Z,8.30
2019-02-05T07:21:44.028Z,8.90
2019-02-05T07:22:44.045Z,8.30
2019-02-05T07:23:43.986Z,9.30
2019-02-05T07:24:43.954Z,8.80
2019-02-05T07:25:43.947Z,8.90
2019-02-05T07:26:43.902Z,9.70
2019-02-05T07:27:43.879Z,9.20
2019-02-05T07:28:43.859Z,9.50
2019-02-05T07:29:43.829Z,8.90
2019-02-05T07:30:43.825Z,9.00
2019-02-05T07:31:43.768Z,9.10
2019-02-05T07:32:43.788Z,8.90
2019-02-05T07:33:43.722Z,8.80
2019-02-05T07:34:43.690Z,9.30
2019-02-05T07:35:43.694Z,9.50
2019-02-05T07:36:43.639Z,8.80
2019-02-05T07:37:43.642Z,10.30
2019-02-05T07:38:43.610Z,9.60
2019-02-05T07:39:43.563Z,9.90
2019-02-05T07:40:43.539Z,10.20
2019-02-05T07:41:43.543Z,9.50
2019-02-05T07:42:43.505Z,8.50
2019-02-05T07:43:43.473Z,9.30
2019-02-05T07:44:43.434Z,9.80
2019-02-05T07:45:43.403Z,9.50
2019-02-05T07:46:43.375Z,9.60
2019-02-05T07:47:43.399Z,10.10
2019-02-05T07:48:43.368Z,10.10
2019-02-05T07:49:43.325Z,9.00
2019-02-05T07:50:43.309Z,9.00
2019-02-05T07:51:43.268Z,8.50
2019-02-05T07:52:43.214Z,10.00
2019-02-05T07:53:43.213Z,10.20
2019-02-05T07:54:43.170Z,9.10
2019-02-05T07:55:43.168Z,9.80
2019-02-05T07:56:43.148Z,10.20
2019-02-05T07:57:43.119Z,9.80
2019-02-05T07:58:43.106Z,9.80
2019-02-05T07:59:43.037Z,10.00
2019-02-05T08:00:43.048Z,9.40
2019-02-05T08:01:42.982Z,9.50
2019-02-05T08:02:42.993Z,9.00
2019-02-05T08:03:42.939Z,10.00
2019-02-05T08:04:42.946Z,9.90
2019-02-05T08:05:42.880Z,9.70
2019-02-05T08:06:42.889Z,9.10
2019-02-05T08:07:42.848Z,9.80
2019-02-05T08:08:42.799Z,9.10
2019-02-05T08:09:42.804Z,9.10
2019-02-05T08:10:42.784Z,9.30
2019-02-05T08:11:42.773Z,9.70
2019-02-05T08:12:42.696Z,10.10
2019-02-05T08:13:42.704Z,10.10
2019-02-05T08:14:42.673Z,10.00
2019-02-05T08:15:42.657Z,9.40
2019-02-05T08:16:42.607Z,10.10
2019-02-05T08:17:42.605Z,9.60
2019-02-05T08:18:42.554Z,9.20
2019-02-05T08:19:42.520Z,9.70
2019-02-05T08:20:42.530Z,9.20
2019-02-05T08:21:42.482Z,10.10
2019-02-05T08:22:42.473Z,10.10
2019-02-05T08:23:42.482Z,9.80
2019-02-05T08:24:42.408Z,10.90
2019-02-05T08:25:42.356Z,9.90
2019-02-05T08:26:42.359Z,9.40
2019-02-05T08:27:42.315Z,10.00
2019-02-05T08:28:42.285Z,10.20
2019-02-05T08:29:42.289Z,9.70
2019-02-05T08:30:42.229Z,9.30
2019-02-05T08:31:42.228Z,10.20
2019-02-05T08:32:42.220Z,10.40
2019-02-05T08:33:42.177Z,9.40
2019-02-05T08:34:42.161Z,9.60
2019-02-05T08:35:42.147Z,9.30
2019-02-05T08:36:42.080Z,10.10
2019-02-05T08:37:42.080Z,10.90
2019-02-05T08:38:42.031Z,9.80
2019-02-05T08:39:44.047Z,9.80
2019-02-05T08:40:41.967Z,10.50
2019-02-05T08:41:41.968Z,10.30
2019-02-05T08:42:41.923Z,10.40
2019-02-05T08:43:41.905Z,9.70
2019-02-05T08:44:41.892Z,10.10
2019-02-05T08:45:41.866Z,11.10
2019-02-05T08:46:41.840Z,10.00
2019-02-05T08:47:41.802Z,10.30
2019-02-05T08:48:41.771Z,10.50
2019-02-05T08:49:41.754Z,10.40
2019-02-05T08:50:41.722Z,10.50
2019-02-05T08:51:41.691Z,10.60
2019-02-05T08:52:41.675Z,10.20
2019-02-05T08:53:41.636Z,10.50
2019-02-05T08:54:41.622Z,10.70
2019-02-05T08:55:41.669Z,11.30
2019-02-05T08:56:41.559Z,10.40
2019-02-05T08:57:41.531Z,11.50
2019-02-05T08:58:41.551Z,10.80
2019-02-05T08:59:41.486Z,10.60
2019-02-05T09:00:41.492Z,10.60
2019-02-05T09:01:41.455Z,10.50
2019-02-05T09:02:41.432Z,10.70
2019-02-05T09:03:41.386Z,11.00
2019-02-05T09:04:41.368Z,10.80
2019-02-05T09:05:41.355Z,10.80
2019-02-05T09:06:41.333Z,10.90
2019-02-05T09:07:41.288Z,10.80
2019-02-05T09:08:41.278Z,10.50
2019-02-05T09:09:41.256Z,11.00
2019-02-05T09:10:41.224Z,10.40
2019-02-05T09:11:41.199Z,11.00
2019-02-05T09:12:41.157Z,10.90
2019-02-05T09:13:41.133Z,10.40
2019-02-05T09:14:41.117Z,11.70
2019-02-05T09:15:41.118Z,10.70
2019-02-05T09:16:41.072Z,11.10
2019-02-05T09:19:05.099Z,11.00
2019-02-05T09:20:05.388Z,11.20
2019-02-05T09:21:04.979Z,11.20
2019-02-05T09:22:05.018Z,11.60
2019-02-05T09:23:04.935Z,12.30
2019-02-05T09:24:04.936Z,12.40
2019-02-05T09:25:04.889Z,11.70
2019-02-05T09:26:04.879Z,11.70
2019-02-05T09:27:04.841Z,11.80
2019-02-05T09:28:04.812Z,12.20
2019-02-05T09:29:04.796Z,11.30
2019-02-05T09:30:04.794Z,11.40
2019-02-05T09:31:04.772Z,10.80
2019-02-05T09:32:04.714Z,11.60
2019-02-05T09:33:04.711Z,11.50
2019-02-05T09:34:04.683Z,11.90
2019-02-05T09:35:04.684Z,11.70
2019-02-05T09:36:04.613Z,11.40
2019-02-05T09:37:04.610Z,11.40
2019-02-05T09:38:04.573Z,10.80
2019-02-05T09:39:04.540Z,10.20
2019-02-05T09:40:04.500Z,11.00
2019-02-05T09:41:04.473Z,10.10
2019-02-05T09:42:04.448Z,11.50
2019-02-05T09:43:04.447Z,11.40
2019-02-05T09:44:04.423Z,11.20
2019-02-05T09:45:04.379Z,11.30
2019-02-05T09:46:04.349Z,11.30
2019-02-05T09:47:04.335Z,11.40
2019-02-05T09:48:04.340Z,11.10
2019-02-05T09:49:04.308Z,11.30
2019-02-05T09:50:04.299Z,10.80
2019-02-05T09:51:04.234Z,11.50
2019-02-05T09:52:04.215Z,11.10
2019-02-05T09:53:04.187Z,11.60
2019-02-05T09:54:04.163Z,12.50
2019-02-05T09:55:04.139Z,11.00
2019-02-05T09:56:04.153Z,12.00
2019-02-05T09:57:04.104Z,11.20
2019-02-05T09:58:04.084Z,10.50
2019-02-05T09:59:04.038Z,11.30
2019-02-05T10:00:04.035Z,10.90
2019-02-05T10:01:04.020Z,10.50
2019-02-05T10:02:04.013Z,11.40
2019-02-05T10:03:04.049Z,10.90
2019-02-05T10:04:03.929Z,11.40
2019-02-05T10:05:03.926Z,11.30
2019-02-05T10:06:03.853Z,11.10
2019-02-05T10:07:03.833Z,11.10
2019-02-05T10:08:03.831Z,11.30
2019-02-05T10:09:03.808Z,11.80
2019-02-05T10:10:03.789Z,11.20
2019-02-05T10:11:03.744Z,11.70
2019-02-05T10:12:03.717Z,11.10
2019-02-05T10:13:03.685Z,10.90
2019-02-05T10:14:03.719Z,11.00
2019-02-05T10:15:03.673Z,12.40
2019-02-05T10:16:03.930Z,11.80
2019-02-05T10:17:03.836Z,11.50
2019-02-05T10:18:03.562Z,12.10
2019-02-05T10:19:03.594Z,10.90
2019-02-05T10:20:03.527Z,11.20
2019-02-05T10:21:03.491Z,11.20
2019-02-05T10:22:03.496Z,10.80
2019-02-05T10:23:03.493Z,11.50
2019-02-05T10:24:03.417Z,10.10
2019-02-05T10:25:03.438Z,10.70
2019-02-05T10:26:03.362Z,10.80
2019-02-05T10:27:03.376Z,10.80
2019-02-05T10:28:03.356Z,10.20
2019-02-05T10:29:03.300Z,10.00
2019-02-05T10:30:04.317Z,10.80
2019-02-05T10:31:03.255Z,9.70
2019-02-05T10:32:03.228Z,10.40
2019-02-05T10:33:03.292Z,11.10
2019-02-05T10:34:03.192Z,10.50
2019-02-05T10:35:03.158Z,9.80
2019-02-05T10:36:03.125Z,9.70
2019-02-05T10:37:03.106Z,10.50
2019-02-05T10:38:03.099Z,10.50
2019-02-05T10:39:03.083Z,11.00
2019-02-05T10:40:03.038Z,10.30
2019-02-05T10:41:03.027Z,11.00
2019-02-05T10:42:03.011Z,10.20
2019-02-05T10:43:02.982Z,10.50
2019-02-05T10:44:02.977Z,11.70
2019-02-05T10:45:02.913Z,10.60
2019-02-05T10:46:02.902Z,10.90
2019-02-05T10:47:02.883Z,12.30
2019-02-05T10:48:02.854Z,11.80
2019-02-05T10:49:03.426Z,12.30
2019-02-05T10:50:02.791Z,10.60
2019-02-05T10:51:02.809Z,11.20
2019-02-05T10:52:02.773Z,10.50
2019-02-05T10:53:02.795Z,10.70
2019-02-05T10:54:02.712Z,9.90
2019-02-05T10:55:02.686Z,10.30
2019-02-05T10:56:02.647Z,10.50
2019-02-05T10:57:02.615Z,10.90
2019-02-05T10:58:02.607Z,11.40
2019-02-05T10:59:02.573Z,10.70
2019-02-05T11:00:09.008Z,10.70
2019-02-05T11:01:02.523Z,10.60
2019-02-05T11:02:02.515Z,10.90
2019-02-05T11:03:02.473Z,10.30
2019-02-05T11:04:02.470Z,10.80
2019-02-05T11:05:02.426Z,12.30
2019-02-05T11:06:02.419Z,13.00
2019-02-05T11:07:02.378Z,11.70
2019-02-05T11:08:02.369Z,13.80
2019-02-05T11:09:02.327Z,14.20
2019-02-05T11:10:02.320Z,13.90
2019-02-05T11:11:02.291Z,12.10
2019-02-05T11:12:02.267Z,12.00
2019-02-05T11:13:02.263Z,11.40
2019-02-05T11:14:02.238Z,11.30
2019-02-05T11:15:02.189Z,11.70
2019-02-05T11:16:02.189Z,11.10
2019-02-05T11:17:02.134Z,10.50
2019-02-05T11:18:02.130Z,10.10
2019-02-05T11:19:02.116Z,10.80
2019-02-05T11:20:02.095Z,10.50
2019-02-05T11:21:04.290Z,10.10
2019-02-05T11:22:02.024Z,10.10
2019-02-05T11:23:01.998Z,10.00
2019-02-05T11:24:02.009Z,10.90
2019-02-05T11:25:01.963Z,10.20
2019-02-05T11:26:01.952Z,10.30
2019-02-05T11:27:01.907Z,9.90
2019-02-05T11:28:01.884Z,10.00
2019-02-05T11:29:01.859Z,10.30
2019-02-05T11:30:01.824Z,9.80
2019-02-05T11:31:01.832Z,11.00
2019-02-05T11:32:01.783Z,10.90
2019-02-05T11:33:01.789Z,10.20
2019-02-05T11:34:01.731Z,10.90
2019-02-05T11:35:01.719Z,10.80
2019-02-05T11:36:01.700Z,11.10
2019-02-05T11:37:01.704Z,11.00
2019-02-05T11:38:01.634Z,10.50
2019-02-05T11:39:01.635Z,10.70
2019-02-05T11:40:01.613Z,11.30
2019-02-05T11:41:01.585Z,10.70
2019-02-05T11:42:01.550Z,11.00
2019-02-05T11:43:01.540Z,11.10
2019-02-05T11:44:01.617Z,10.90
2019-02-05T11:45:01.472Z,10.60
2019-02-05T11:46:01.485Z,10.70
2019-02-05T11:47:03.858Z,12.10
2019-02-05T11:48:01.446Z,11.70
2019-02-05T11:49:01.389Z,10.20
2019-02-05T11:50:01.391Z,11.20
2019-02-05T11:51:01.358Z,11.20
2019-02-05T11:52:01.360Z,11.40
2019-02-05T11:53:01.317Z,11.80
2019-02-05T11:54:01.289Z,11.20
2019-02-05T11:55:01.342Z,10.90
2019-02-05T11:56:01.491Z,10.50
2019-02-05T11:57:01.406Z,12.20
2019-02-05T11:58:01.332Z,11.00
2019-02-05T11:59:01.163Z,12.10
2019-02-05T12:00:01.435Z,12.00
2019-02-05T12:01:01.101Z,11.90
2019-02-05T12:02:01.099Z,11.70
2019-02-05T12:03:01.085Z,12.20
2019-02-05T12:04:01.040Z,11.10
2019-02-05T12:05:01.034Z,11.20
2019-02-05T12:06:00.978Z,11.00
2019-02-05T12:07:00.968Z,11.60
2019-02-05T12:08:00.958Z,12.00
2019-02-05T12:09:00.919Z,11.50
2019-02-05T12:10:00.889Z,11.50
2019-02-05T12:11:00.882Z,13.00
2019-02-05T12:12:00.849Z,11.80
2019-02-05T12:13:00.828Z,11.40
2019-02-05T12:14:00.797Z,10.80
2019-02-05T12:15:00.856Z,11.00
2019-02-05T12:16:00.751Z,11.10
2019-02-05T12:17:00.719Z,11.50
2019-02-05T12:18:00.696Z,11.20
2019-02-05T12:19:00.702Z,10.80
2019-02-05T12:20:00.650Z,10.50
2019-02-05T12:21:00.625Z,11.30
2019-02-05T12:22:00.594Z,11.10
2019-02-05T12:23:00.584Z,11.00
2019-02-05T12:24:00.593Z,11.30
2019-02-05T12:25:00.532Z,11.00
2019-02-05T12:26:00.522Z,10.60
2019-02-05T12:27:00.494Z,11.00
2019-02-05T12:28:00.456Z,11.20
2019-02-05T12:29:00.450Z,11.80
2019-02-05T12:30:00.426Z,11.10
2019-02-05T12:31:00.394Z,11.50
2019-02-05T12:32:00.376Z,10.90
2019-02-05T12:33:01.899Z,10.90
2019-02-05T12:34:00.327Z,10.90
2019-02-05T12:35:00.322Z,11.80
2019-02-05T12:36:00.276Z,11.30
2019-02-05T12:37:00.290Z,12.00
2019-02-05T12:38:00.232Z,12.10
2019-02-05T12:39:00.198Z,11.40
2019-02-05T12:40:00.358Z,10.20
2019-02-05T12:41:00.181Z,11.30
2019-02-05T12:42:00.124Z,12.00
2019-02-05T12:43:00.138Z,12.00
2019-02-05T12:44:00.097Z,11.90
2019-02-05T12:45:00.059Z,11.60
2019-02-05T12:46:00.037Z,11.90
2019-02-05T12:47:00.010Z,11.60
2019-02-05T12:48:00.011Z,11.90
2019-02-05T12:48:59.966Z,11.40
2019-02-05T12:49:59.938Z,11.80
2019-02-05T12:50:59.913Z,12.60
2019-02-05T12:51:59.892Z,12.80
2019-02-05T12:52:59.864Z,13.80
2019-02-05T12:53:59.854Z,13.80
2019-02-05T12:55:12.715Z,13.50
2019-02-05T12:55:59.813Z,12.50
2019-02-05T12:56:59.772Z,13.40
2019-02-05T12:57:59.770Z,13.20
2019-02-05T12:58:59.726Z,13.80
2019-02-05T12:59:59.700Z,13.50
2019-02-05T13:01:01.436Z,12.90
2019-02-05T13:01:59.669Z,13.70
2019-02-05T13:02:59.635Z,12.80
2019-02-05T13:03:59.661Z,12.60
2019-02-05T13:04:59.620Z,12.50
2019-02-05T13:05:59.562Z,12.70
2019-02-05T13:06:59.571Z,11.50
2019-02-05T13:07:59.621Z,12.00
2019-02-05T13:08:59.557Z,12.00
2019-02-05T13:09:59.656Z,13.30